Aviation Digital Data Service (ADDS)

Output produced by METARs form (1515 UTC 20 November 2018)
found at http://www.aviationweather.gov/metar/data/
 
METAR text: KHWD 201454Z 08005KT 3SM HZ FU CLR 07/M01 A3000 RMK AO2 SLP169 T00721006 51006
Conditions at: KHWD (HAYWARD , CA, US) observed 1454 UTC 20 November 2018
Temperature: 7.2°C (45°F)
Dewpoint: -0.6°C (31°F) [RH = 58%]
Pressure (altimeter): 30.00 inches Hg (1016.0 mb)
[Sea-level pressure: 1016.9 mb]
Winds: from the E (80 degrees) at 6 MPH (5 knots; 2.6 m/s)
Visibility: 3 miles ( 5 km)
Ceiling: at least 12,000 feet AGL
Clouds: sky clear below 12,000 feet AGL
Weather: HZ FU  (haze, smoke)

METAR text: KHWD 201354Z AUTO 07003KT 4SM HZ FU CLR 07/00 A3000 RMK AO2 SLP167 T00720000
Conditions at: KHWD (HAYWARD , CA, US) observed 1354 UTC 20 November 2018
Temperature: 7.2°C (45°F)
Dewpoint: 0.0°C (32°F) [RH = 60%]
Pressure (altimeter): 30.00 inches Hg (1016.0 mb)
[Sea-level pressure: 1016.7 mb]
Winds: from the ENE (70 degrees) at 3 MPH (3 knots; 1.5 m/s)
Visibility: 4 miles ( 6 km)
Ceiling: at least 12,000 feet AGL
Clouds: sky clear below 12,000 feet AGL
Weather: HZ FU  (haze, smoke)

METAR text: KHWD 201254Z AUTO 00000KT 4SM HZ FU CLR 07/M01 A2999 RMK AO2 SLP166 T00671006
Conditions at: KHWD (HAYWARD , CA, US) observed 1254 UTC 20 November 2018
Temperature: 6.7°C (44°F)
Dewpoint: -0.6°C (31°F) [RH = 60%]
Pressure (altimeter): 29.99 inches Hg (1015.7 mb)
[Sea-level pressure: 1016.6 mb]
Winds: calm
Visibility: 4 miles ( 6 km)
Ceiling: at least 12,000 feet AGL
Clouds: sky clear below 12,000 feet AGL
Weather: HZ FU  (haze, smoke)

METAR text: KHWD 201154Z AUTO 07004KT 4SM HZ FU CLR 08/M01 A2998 RMK AO2 SLP162 T00781006 10111 20072 57010
Conditions at: KHWD (HAYWARD , CA, US) observed 1154 UTC 20 November 2018
Temperature: 7.8°C (46°F)
Dewpoint: -0.6°C (31°F) [RH = 55%]
Pressure (altimeter): 29.98 inches Hg (1015.3 mb)
[Sea-level pressure: 1016.2 mb]
Winds: from the ENE (70 degrees) at 5 MPH (4 knots; 2.1 m/s)
Visibility: 4 miles ( 6 km)
Ceiling: at least 12,000 feet AGL
Clouds: sky clear below 12,000 feet AGL
Weather: HZ FU  (haze, smoke)

METAR text: KHWD 201054Z AUTO 06004KT 4SM HZ FU CLR 08/M01 A2999 RMK AO2 SLP166 T00831006
Conditions at: KHWD (HAYWARD , CA, US) observed 1054 UTC 20 November 2018
Temperature: 8.3°C (47°F)
Dewpoint: -0.6°C (31°F) [RH = 53%]
Pressure (altimeter): 29.99 inches Hg (1015.7 mb)
[Sea-level pressure: 1016.6 mb]
Winds: from the ENE (60 degrees) at 5 MPH (4 knots; 2.1 m/s)
Visibility: 4 miles ( 6 km)
Ceiling: at least 12,000 feet AGL
Clouds: sky clear below 12,000 feet AGL
Weather: HZ FU  (haze, smoke)

METAR text: KHWD 200954Z AUTO 07003KT 4SM HZ FU CLR 08/M01 A3000 RMK AO2 SLP169 T00831006
Conditions at: KHWD (HAYWARD , CA, US) observed 0954 UTC 20 November 2018
Temperature: 8.3°C (47°F)
Dewpoint: -0.6°C (31°F) [RH = 53%]
Pressure (altimeter): 30.00 inches Hg (1016.0 mb)
[Sea-level pressure: 1016.9 mb]
Winds: from the ENE (70 degrees) at 3 MPH (3 knots; 1.5 m/s)
Visibility: 4 miles ( 6 km)
Ceiling: at least 12,000 feet AGL
Clouds: sky clear below 12,000 feet AGL
Weather: HZ FU  (haze, smoke)

METAR text: KHWD 200854Z AUTO 05007KT 3SM HZ FU CLR 09/00 A3001 RMK AO2 SLP172 T00940000 56001
Conditions at: KHWD (HAYWARD , CA, US) observed 0854 UTC 20 November 2018
Temperature: 9.4°C (49°F)
Dewpoint: 0.0°C (32°F) [RH = 52%]
Pressure (altimeter): 30.01 inches Hg (1016.3 mb)
[Sea-level pressure: 1017.2 mb]
Winds: from the NE (50 degrees) at 8 MPH (7 knots; 3.6 m/s)
Visibility: 3 miles ( 5 km)
Ceiling: at least 12,000 feet AGL
Clouds: sky clear below 12,000 feet AGL
Weather: HZ FU  (haze, smoke)

METAR text: KHWD 200754Z AUTO 00000KT 4SM HZ FU CLR 09/00 A3001 RMK AO2 SLP172 T00940000 401780067
Conditions at: KHWD (HAYWARD , CA, US) observed 0754 UTC 20 November 2018
Temperature: 9.4°C (49°F)
Dewpoint: 0.0°C (32°F) [RH = 52%]
Pressure (altimeter): 30.01 inches Hg (1016.3 mb)
[Sea-level pressure: 1017.2 mb]
Winds: calm
Visibility: 4 miles ( 6 km)
Ceiling: at least 12,000 feet AGL
Clouds: sky clear below 12,000 feet AGL
Weather: HZ FU  (haze, smoke)